Time,TemperatureF,DewpointF,PressureIn,WindDirection,WindDirectionDegrees,WindSpeedMPH,WindSpeedGustMPH,Humidity,HourlyPrecipIn,Conditions,Clouds,dailyrainin,SoftwareType,DateUTC
2013-06-14 00:02:00,44.4,37.9,30.21,South,180,1.0,2.0,78,0.00,,,0.00,meteohub,2013-06-14 07:02:00,
2013-06-14 00:07:00,44.2,37.8,30.21,East,90,1.0,2.0,78,0.00,,,0.00,meteohub,2013-06-14 07:07:00,
2013-06-14 00:12:00,44.1,37.9,30.20,NW,315,1.0,2.0,79,0.00,,,0.00,meteohub,2013-06-14 07:12:00,
2013-06-14 00:17:00,43.9,37.8,30.21,SE,135,1.0,2.0,79,0.00,,,0.00,meteohub,2013-06-14 07:17:00,
2013-06-14 00:22:00,43.5,37.4,30.21,SE,135,1.0,2.0,79,0.00,,,0.00,meteohub,2013-06-14 07:22:00,
2013-06-14 00:27:00,43.3,37.2,30.21,SE,135,0.0,2.0,79,0.00,,,0.00,meteohub,2013-06-14 07:27:00,
2013-06-14 00:32:00,43.2,37.0,30.21,SE,135,0.0,2.0,79,0.00,,,0.00,meteohub,2013-06-14 07:32:00,
2013-06-14 00:37:00,43.0,36.9,30.20,SE,135,0.0,2.0,79,0.00,,,0.00,meteohub,2013-06-14 07:37:00,
2013-06-14 00:42:00,42.6,37.2,30.21,SE,135,0.0,0.0,81,0.00,,,0.00,meteohub,2013-06-14 07:42:00,
2013-06-14 00:47:00,42.4,37.0,30.21,NE,45,0.0,0.0,81,0.00,,,0.00,meteohub,2013-06-14 07:47:00,
2013-06-14 00:52:00,42.4,37.0,30.20,NE,45,0.0,0.0,81,0.00,,,0.00,meteohub,2013-06-14 07:52:00,
2013-06-14 00:57:00,42.3,37.2,30.22,SE,135,1.0,0.0,82,0.00,,,0.00,meteohub,2013-06-14 07:57:00,
2013-06-14 01:02:00,42.1,37.0,30.21,SW,225,1.0,2.0,82,0.00,,,0.00,meteohub,2013-06-14 08:02:00,
2013-06-14 01:07:00,41.9,36.9,30.21,SW,225,2.0,2.0,82,0.00,,,0.00,meteohub,2013-06-14 08:07:00,
2013-06-14 01:12:00,42.1,37.2,30.21,SW,225,1.0,2.0,83,0.00,,,0.00,meteohub,2013-06-14 08:12:00,
2013-06-14 01:17:00,41.9,37.0,30.21,SW,225,2.0,2.0,83,0.00,,,0.00,meteohub,2013-06-14 08:17:00,
2013-06-14 01:22:00,41.7,36.9,30.21,SW,225,1.0,2.0,83,0.00,,,0.00,meteohub,2013-06-14 08:22:00,
2013-06-14 01:27:00,41.7,36.9,30.21,South,180,2.0,2.0,83,0.00,,,0.00,meteohub,2013-06-14 08:27:00,
2013-06-14 01:32:00,41.5,37.0,30.21,SW,225,2.0,2.0,84,0.00,,,0.00,meteohub,2013-06-14 08:32:00,
2013-06-14 01:37:00,41.5,37.0,30.21,SW,225,2.0,2.0,84,0.00,,,0.00,meteohub,2013-06-14 08:37:00,
2013-06-14 01:42:00,41.4,36.9,30.21,South,180,2.0,2.0,84,0.00,,,0.00,meteohub,2013-06-14 08:42:00,
2013-06-14 01:47:00,41.2,36.7,30.21,South,180,2.0,2.0,84,0.00,,,0.00,meteohub,2013-06-14 08:47:00,
2013-06-14 01:52:00,41.2,36.7,30.21,South,180,1.0,2.0,84,0.00,,,0.00,meteohub,2013-06-14 08:52:00,
2013-06-14 01:57:00,41.0,36.5,30.20,North,0,1.0,2.0,84,0.00,,,0.00,meteohub,2013-06-14 08:57:00,
2013-06-14 02:02:00,41.0,36.5,30.20,SE,135,1.0,2.0,84,0.00,,,0.00,meteohub,2013-06-14 09:02:00,
2013-06-14 02:07:00,40.8,36.7,30.20,SW,225,1.0,2.0,85,0.00,,,0.00,meteohub,2013-06-14 09:07:00,
2013-06-14 02:12:00,40.6,36.5,30.21,East,90,1.0,2.0,85,0.00,,,0.00,meteohub,2013-06-14 09:12:00,
2013-06-14 02:17:00,40.5,36.3,30.20,SW,225,2.0,2.0,85,0.00,,,0.00,meteohub,2013-06-14 09:17:00,
2013-06-14 02:22:00,40.5,36.3,30.21,SW,225,2.0,2.0,85,0.00,,,0.00,meteohub,2013-06-14 09:22:00,
2013-06-14 02:27:00,40.5,36.7,30.20,SW,225,1.0,2.0,86,0.00,,,0.00,meteohub,2013-06-14 09:27:00,
2013-06-14 02:32:00,40.5,36.7,30.20,SW,225,0.0,2.0,86,0.00,,,0.00,meteohub,2013-06-14 09:32:00,
2013-06-14 02:37:00,40.3,36.5,30.19,South,180,2.0,2.0,86,0.00,,,0.00,meteohub,2013-06-14 09:37:00,
2013-06-14 02:42:00,40.3,36.7,30.19,SE,135,1.0,2.0,87,0.00,,,0.00,meteohub,2013-06-14 09:42:00,
2013-06-14 02:47:00,40.3,36.7,30.20,SW,225,1.0,2.0,87,0.00,,,0.00,meteohub,2013-06-14 09:47:00,
2013-06-14 02:52:00,40.3,36.7,30.20,South,180,1.0,2.0,87,0.00,,,0.00,meteohub,2013-06-14 09:52:00,
2013-06-14 02:57:00,40.3,36.7,30.19,South,180,2.0,3.0,87,0.00,,,0.00,meteohub,2013-06-14 09:57:00,
2013-06-14 03:02:00,40.5,37.2,30.20,SE,135,1.0,4.0,88,0.00,,,0.00,meteohub,2013-06-14 10:02:00,
2013-06-14 03:07:00,40.5,37.2,30.19,SE,135,1.0,4.0,88,0.00,,,0.00,meteohub,2013-06-14 10:07:00,
2013-06-14 03:12:00,40.3,37.0,30.19,SW,225,2.0,3.0,88,0.00,,,0.00,meteohub,2013-06-14 10:12:00,
2013-06-14 03:17:00,40.1,36.9,30.19,South,180,1.0,2.0,88,0.00,,,0.00,meteohub,2013-06-14 10:17:00,
2013-06-14 03:22:00,39.9,36.7,30.19,South,180,1.0,2.0,88,0.00,,,0.00,meteohub,2013-06-14 10:22:00,
2013-06-14 03:27:00,39.7,36.5,30.20,South,180,1.0,2.0,88,0.00,,,0.00,meteohub,2013-06-14 10:27:00,
2013-06-14 03:32:00,39.6,36.3,30.19,South,180,1.0,2.0,88,0.00,,,0.00,meteohub,2013-06-14 10:32:00,
2013-06-14 03:37:00,39.2,36.0,30.19,ENE,68,1.0,2.0,88,0.00,,,0.00,meteohub,2013-06-14 10:37:00,
2013-06-14 03:42:00,38.8,36.0,30.19,SW,225,1.0,2.0,89,0.00,,,0.00,meteohub,2013-06-14 10:42:00,
2013-06-14 03:47:00,38.7,35.8,30.19,SW,225,2.0,2.0,89,0.00,,,0.00,meteohub,2013-06-14 10:47:00,
2013-06-14 03:52:00,38.3,35.4,30.20,SW,225,2.0,2.0,89,0.00,,,0.00,meteohub,2013-06-14 10:52:00,
2013-06-14 03:57:00,37.9,34.7,30.19,SE,135,2.0,2.0,88,0.00,,,0.00,meteohub,2013-06-14 10:57:00,
2013-06-14 04:02:00,37.6,34.3,30.19,East,90,0.0,2.0,88,0.00,,,0.00,meteohub,2013-06-14 11:02:00,
2013-06-14 04:07:00,37.4,34.2,30.19,South,180,1.0,2.0,88,0.00,,,0.00,meteohub,2013-06-14 11:07:00,
2013-06-14 04:12:00,37.2,33.1,30.19,SE,135,2.0,3.0,85,0.00,,,0.00,meteohub,2013-06-14 11:12:00,
2013-06-14 04:17:00,36.9,32.7,30.20,SE,135,2.0,4.0,85,0.00,,,0.00,meteohub,2013-06-14 11:17:00,
2013-06-14 04:22:00,36.7,32.5,30.19,South,180,2.0,4.0,85,0.00,,,0.00,meteohub,2013-06-14 11:22:00,
2013-06-14 04:27:00,36.5,32.4,30.19,NW,315,2.0,4.0,85,0.00,,,0.00,meteohub,2013-06-14 11:27:00,
2013-06-14 04:32:00,36.1,32.0,30.19,East,90,3.0,3.0,85,0.00,,,0.00,meteohub,2013-06-14 11:32:00,
2013-06-14 04:37:00,36.3,32.5,30.19,SE,135,2.0,3.0,86,0.00,,,0.00,meteohub,2013-06-14 11:37:00,
2013-06-14 04:42:00,36.3,32.5,30.19,SW,225,2.0,3.0,86,0.00,,,0.00,meteohub,2013-06-14 11:42:00,
2013-06-14 04:47:00,36.3,32.9,30.19,East,90,1.0,3.0,87,0.00,,,0.00,meteohub,2013-06-14 11:47:00,
2013-06-14 04:52:00,36.5,33.3,30.19,SW,225,2.0,3.0,88,0.00,,,0.00,meteohub,2013-06-14 11:52:00,
2013-06-14 04:57:00,36.5,33.3,30.19,SW,225,2.0,3.0,88,0.00,,,0.00,meteohub,2013-06-14 11:57:00,
2013-06-14 05:02:00,36.5,33.6,30.19,SW,225,2.0,3.0,89,0.00,,,0.00,meteohub,2013-06-14 12:02:00,
2013-06-14 05:07:00,36.3,33.4,30.19,SW,225,2.0,3.0,89,0.00,,,0.00,meteohub,2013-06-14 12:07:00,
2013-06-14 05:12:00,36.3,33.4,30.19,South,180,1.0,3.0,89,0.00,,,0.00,meteohub,2013-06-14 12:12:00,
2013-06-14 05:17:00,36.1,33.3,30.19,South,180,0.0,3.0,89,0.00,,,0.00,meteohub,2013-06-14 12:17:00,
2013-06-14 05:22:00,36.0,33.1,30.20,SE,135,1.0,3.0,89,0.00,,,0.00,meteohub,2013-06-14 12:22:00,
2013-06-14 05:27:00,36.0,33.1,30.19,SE,135,0.0,2.0,89,0.00,,,0.00,meteohub,2013-06-14 12:27:00,
2013-06-14 05:32:00,36.0,33.1,30.20,East,90,2.0,2.0,89,0.00,,,0.00,meteohub,2013-06-14 12:32:00,
2013-06-14 05:37:00,36.0,33.1,30.20,South,180,1.0,2.0,89,0.00,,,0.00,meteohub,2013-06-14 12:37:00,
2013-06-14 05:42:00,36.0,33.1,30.20,East,90,1.0,2.0,89,0.00,,,0.00,meteohub,2013-06-14 12:42:00,
2013-06-14 05:47:00,36.0,33.1,30.19,South,180,2.0,3.0,89,0.00,,,0.00,meteohub,2013-06-14 12:47:00,
2013-06-14 05:52:00,36.3,33.4,30.20,South,180,1.0,3.0,89,0.00,,,0.00,meteohub,2013-06-14 12:52:00,
2013-06-14 05:57:00,36.7,33.8,30.20,East,90,1.0,3.0,89,0.00,,,0.00,meteohub,2013-06-14 12:57:00,
2013-06-14 06:02:00,37.2,34.3,30.20,SE,135,3.0,3.0,89,0.00,,,0.00,meteohub,2013-06-14 13:02:00,
2013-06-14 06:07:00,37.4,35.2,30.20,ESE,113,3.0,3.0,92,0.00,,,0.00,meteohub,2013-06-14 13:07:00,
2013-06-14 06:12:00,37.9,35.8,30.20,East,90,3.0,3.0,92,0.00,,,0.00,meteohub,2013-06-14 13:12:00,
2013-06-14 06:17:00,38.5,36.1,30.20,ESE,113,3.0,3.0,91,0.00,,,0.00,meteohub,2013-06-14 13:17:00,
2013-06-14 06:22:00,38.8,36.1,30.20,NE,45,3.0,3.0,90,0.00,,,0.00,meteohub,2013-06-14 13:22:00,
2013-06-14 06:27:00,39.4,36.1,30.19,East,90,3.0,3.0,88,0.00,,,0.00,meteohub,2013-06-14 13:27:00,
2013-06-14 06:32:00,40.1,36.5,30.20,NE,45,4.0,4.0,87,0.00,,,0.00,meteohub,2013-06-14 13:32:00,
2013-06-14 06:37:00,40.8,36.7,30.20,East,90,6.0,6.0,85,0.00,,,0.00,meteohub,2013-06-14 13:37:00,
2013-06-14 06:42:00,41.2,36.5,30.20,SE,135,3.0,6.0,83,0.00,,,0.00,meteohub,2013-06-14 13:42:00,
2013-06-14 06:47:00,41.5,36.5,30.20,East,90,4.0,6.0,82,0.00,,,0.00,meteohub,2013-06-14 13:47:00,
2013-06-14 06:52:00,42.1,36.7,30.20,East,90,4.0,6.0,81,0.00,,,0.00,meteohub,2013-06-14 13:52:00,
2013-06-14 06:57:00,42.3,36.5,30.20,NE,45,2.0,4.0,80,0.00,,,0.00,meteohub,2013-06-14 13:57:00,
2013-06-14 07:02:00,42.8,36.7,30.19,East,90,4.0,4.0,79,0.00,,,0.00,meteohub,2013-06-14 14:02:00,
2013-06-14 07:07:00,43.2,36.7,30.19,North,0,3.0,4.0,78,0.00,,,0.00,meteohub,2013-06-14 14:07:00,
2013-06-14 07:12:00,43.5,36.5,30.20,East,90,4.0,6.0,76,0.00,,,0.00,meteohub,2013-06-14 14:12:00,
2013-06-14 07:17:00,44.2,36.9,30.19,East,90,4.0,6.0,75,0.00,,,0.00,meteohub,2013-06-14 14:17:00,
2013-06-14 07:22:00,44.8,36.7,30.20,East,90,7.0,8.0,73,0.00,,,0.00,meteohub,2013-06-14 14:22:00,
2013-06-14 07:27:00,45.1,36.3,30.20,East,90,7.0,8.0,71,0.00,,,0.00,meteohub,2013-06-14 14:27:00,
2013-06-14 07:32:00,45.5,36.3,30.19,East,90,4.0,8.0,70,0.00,,,0.00,meteohub,2013-06-14 14:32:00,
2013-06-14 07:37:00,46.2,37.0,30.19,East,90,6.0,8.0,70,0.00,,,0.00,meteohub,2013-06-14 14:37:00,
2013-06-14 07:42:00,46.9,37.6,30.19,East,90,5.0,8.0,70,0.00,,,0.00,meteohub,2013-06-14 14:42:00,
2013-06-14 07:47:00,48.0,38.3,30.19,East,90,8.0,8.0,69,0.00,,,0.00,meteohub,2013-06-14 14:47:00,
2013-06-14 07:52:00,48.6,37.8,30.19,East,90,5.0,8.0,66,0.00,,,0.00,meteohub,2013-06-14 14:52:00,
2013-06-14 07:57:00,49.8,38.5,30.19,SE,135,4.0,8.0,65,0.00,,,0.00,meteohub,2013-06-14 14:57:00,
2013-06-14 08:02:00,50.5,38.5,30.19,East,90,4.0,8.0,63,0.00,,,0.00,meteohub,2013-06-14 15:02:00,
2013-06-14 08:07:00,50.7,38.1,30.19,East,90,10.0,10.0,62,0.00,,,0.00,meteohub,2013-06-14 15:07:00,
2013-06-14 08:12:00,50.7,37.8,30.19,SE,135,8.0,10.0,61,0.00,,,0.00,meteohub,2013-06-14 15:12:00,
2013-06-14 08:17:00,51.1,38.5,30.19,East,90,7.0,11.0,62,0.00,,,0.00,meteohub,2013-06-14 15:17:00,
2013-06-14 08:22:00,52.0,38.5,30.19,East,90,8.0,11.0,60,0.00,,,0.00,meteohub,2013-06-14 15:22:00,
2013-06-14 08:27:00,52.0,38.1,30.19,East,90,8.0,11.0,59,0.00,,,0.00,meteohub,2013-06-14 15:27:00,
2013-06-14 08:32:00,52.3,38.5,30.19,East,90,6.0,10.0,59,0.00,,,0.00,meteohub,2013-06-14 15:32:00,
2013-06-14 08:37:00,53.2,39.2,30.19,East,90,5.0,10.0,59,0.00,,,0.00,meteohub,2013-06-14 15:37:00,
2013-06-14 08:42:00,53.8,38.8,30.19,SE,135,4.0,10.0,57,0.00,,,0.00,meteohub,2013-06-14 15:42:00,
2013-06-14 08:47:00,54.1,39.7,30.19,NE,45,3.0,9.0,58,0.00,,,0.00,meteohub,2013-06-14 15:47:00,
2013-06-14 08:52:00,54.9,40.3,30.18,SE,135,3.0,8.0,58,0.00,,,0.00,meteohub,2013-06-14 15:52:00,
2013-06-14 08:57:00,54.5,39.2,30.18,NE,45,8.0,11.0,56,0.00,,,0.00,meteohub,2013-06-14 15:57:00,
2013-06-14 09:02:00,54.5,38.7,30.18,SE,135,7.0,11.0,55,0.00,,,0.00,meteohub,2013-06-14 16:02:00,
2013-06-14 09:07:00,55.2,40.3,30.18,SE,135,4.0,11.0,57,0.00,,,0.00,meteohub,2013-06-14 16:07:00,
2013-06-14 09:12:00,55.8,40.3,30.17,SE,135,4.0,11.0,56,0.00,,,0.00,meteohub,2013-06-14 16:12:00,
2013-06-14 09:17:00,55.8,40.3,30.18,South,180,4.0,11.0,56,0.00,,,0.00,meteohub,2013-06-14 16:17:00,
2013-06-14 09:22:00,56.1,39.7,30.17,East,90,6.0,11.0,54,0.00,,,0.00,meteohub,2013-06-14 16:22:00,
2013-06-14 09:27:00,55.9,39.0,30.17,NW,315,6.0,11.0,53,0.00,,,0.00,meteohub,2013-06-14 16:27:00,
2013-06-14 09:32:00,56.3,39.4,30.17,SE,135,3.0,11.0,53,0.00,,,0.00,meteohub,2013-06-14 16:32:00,
2013-06-14 09:37:00,56.8,39.9,30.17,SE,135,5.0,11.0,53,0.00,,,0.00,meteohub,2013-06-14 16:37:00,
2013-06-14 09:42:00,57.2,39.7,30.16,East,90,4.0,7.0,52,0.00,,,0.00,meteohub,2013-06-14 16:42:00,
2013-06-14 09:47:00,58.3,40.8,30.17,East,90,10.0,10.0,52,0.00,,,0.00,meteohub,2013-06-14 16:47:00,
2013-06-14 09:52:00,58.6,40.1,30.16,ESE,113,7.0,10.0,50,0.00,,,0.00,meteohub,2013-06-14 16:52:00,
2013-06-14 09:57:00,58.6,39.0,30.16,NE,45,7.0,10.0,48,0.00,,,0.00,meteohub,2013-06-14 16:57:00,
2013-06-14 10:02:00,59.2,37.9,30.16,SE,135,4.0,10.0,45,0.00,,,0.00,meteohub,2013-06-14 17:02:00,
2013-06-14 10:07:00,59.2,37.2,30.16,East,90,11.0,11.0,44,0.00,,,0.00,meteohub,2013-06-14 17:07:00,
2013-06-14 10:12:00,59.5,37.0,30.16,NE,45,6.0,11.0,43,0.00,,,0.00,meteohub,2013-06-14 17:12:00,
2013-06-14 10:17:00,60.1,38.7,30.16,ENE,68,5.0,11.0,45,0.00,,,0.00,meteohub,2013-06-14 17:17:00,
2013-06-14 10:22:00,61.0,37.8,30.15,East,90,4.0,11.0,42,0.00,,,0.00,meteohub,2013-06-14 17:22:00,
2013-06-14 10:27:00,60.8,36.9,30.15,East,90,8.0,8.0,41,0.00,,,0.00,meteohub,2013-06-14 17:27:00,
2013-06-14 10:32:00,61.0,35.8,30.16,SE,135,7.0,9.0,39,0.00,,,0.00,meteohub,2013-06-14 17:32:00,
2013-06-14 10:37:00,60.8,35.6,30.15,East,90,7.0,11.0,39,0.00,,,0.00,meteohub,2013-06-14 17:37:00,
2013-06-14 10:42:00,61.5,36.3,30.15,SE,135,6.0,11.0,39,0.00,,,0.00,meteohub,2013-06-14 17:42:00,
2013-06-14 10:47:00,61.9,36.7,30.15,NW,315,3.0,11.0,39,0.00,,,0.00,meteohub,2013-06-14 17:47:00,
2013-06-14 10:52:00,62.1,36.9,30.14,SW,225,6.0,10.0,39,0.00,,,0.00,meteohub,2013-06-14 17:52:00,
2013-06-14 10:57:00,61.9,36.0,30.14,North,0,4.0,7.0,38,0.00,,,0.00,meteohub,2013-06-14 17:57:00,
2013-06-14 11:02:00,62.4,37.8,30.14,North,0,6.0,6.0,40,0.00,,,0.00,meteohub,2013-06-14 18:02:00,
2013-06-14 11:07:00,63.5,36.1,30.14,East,90,8.0,8.0,36,0.00,,,0.00,meteohub,2013-06-14 18:07:00,
2013-06-14 11:12:00,63.7,33.3,30.14,SE,135,5.0,9.0,32,0.00,,,0.00,meteohub,2013-06-14 18:12:00,
2013-06-14 11:17:00,63.5,33.1,30.14,East,90,3.0,9.0,32,0.00,,,0.00,meteohub,2013-06-14 18:17:00,
2013-06-14 11:22:00,63.7,33.3,30.14,SSW,203,3.0,8.0,32,0.00,,,0.00,meteohub,2013-06-14 18:22:00,
2013-06-14 11:27:00,64.0,34.3,30.14,SE,135,9.0,9.0,33,0.00,,,0.00,meteohub,2013-06-14 18:27:00,
2013-06-14 11:32:00,64.4,34.0,30.14,East,90,4.0,10.0,32,0.00,,,0.00,meteohub,2013-06-14 18:32:00,
2013-06-14 11:37:00,64.9,35.1,30.13,NE,45,4.0,10.0,33,0.00,,,0.00,meteohub,2013-06-14 18:37:00,
2013-06-14 11:42:00,65.5,34.9,30.13,West,270,4.0,10.0,32,0.00,,,0.00,meteohub,2013-06-14 18:42:00,
2013-06-14 11:47:00,65.8,32.7,30.13,SE,135,4.0,7.0,29,0.00,,,0.00,meteohub,2013-06-14 18:47:00,
2013-06-14 11:52:00,65.1,31.3,30.12,SE,135,4.0,11.0,28,0.00,,,0.00,meteohub,2013-06-14 18:52:00,
2013-06-14 11:57:00,65.7,31.6,30.13,East,90,4.0,11.0,28,0.00,,,0.00,meteohub,2013-06-14 18:57:00,
2013-06-14 12:02:00,66.2,32.2,30.13,South,180,8.0,11.0,28,0.00,,,0.00,meteohub,2013-06-14 19:02:00,
2013-06-14 12:07:00,67.3,31.3,30.13,East,90,11.0,11.0,26,0.00,,,0.00,meteohub,2013-06-14 19:07:00,
2013-06-14 12:12:00,67.8,29.7,30.12,NE,45,4.0,48.0,24,0.00,,,0.00,meteohub,2013-06-14 19:12:00,
2013-06-14 12:17:00,68.2,26.8,30.12,NE,45,2.0,48.0,21,0.00,,,0.00,meteohub,2013-06-14 19:17:00,
2013-06-14 12:22:00,67.8,28.6,30.12,SW,225,4.0,12.0,23,0.00,,,0.00,meteohub,2013-06-14 19:22:00,
2013-06-14 12:27:00,67.8,28.6,30.12,SSE,158,3.0,8.0,23,0.00,,,0.00,meteohub,2013-06-14 19:27:00,
2013-06-14 12:32:00,67.8,29.7,30.12,East,90,8.0,8.0,24,0.00,,,0.00,meteohub,2013-06-14 19:32:00,
2013-06-14 12:37:00,67.8,27.5,30.12,East,90,3.0,9.0,22,0.00,,,0.00,meteohub,2013-06-14 19:37:00,
2013-06-14 12:42:00,68.2,25.5,30.12,South,180,8.0,11.0,20,0.00,,,0.00,meteohub,2013-06-14 19:42:00,
2013-06-14 12:47:00,68.7,28.4,30.11,East,90,4.0,11.0,22,0.00,,,0.00,meteohub,2013-06-14 19:47:00,
2013-06-14 12:52:00,68.5,28.2,30.11,South,180,3.0,11.0,22,0.00,,,0.00,meteohub,2013-06-14 19:52:00,
2013-06-14 12:57:00,68.5,27.1,30.11,NE,45,6.0,8.0,21,0.00,,,0.00,meteohub,2013-06-14 19:57:00,
2013-06-14 13:02:00,69.4,28.9,30.10,SW,225,2.0,6.0,22,0.00,,,0.00,meteohub,2013-06-14 20:02:00,
2013-06-14 13:07:00,70.0,29.3,30.11,NE,45,4.0,6.0,22,0.00,,,0.00,meteohub,2013-06-14 20:07:00,
2013-06-14 13:12:00,70.0,24.4,30.10,North,0,5.0,6.0,18,0.00,,,0.00,meteohub,2013-06-14 20:12:00,
2013-06-14 13:17:00,70.3,22.1,30.10,SE,135,8.0,8.0,16,0.00,,,0.00,meteohub,2013-06-14 20:17:00,
2013-06-14 13:22:00,70.3,22.1,30.10,NE,45,3.0,8.0,16,0.00,,,0.00,meteohub,2013-06-14 20:22:00,
2013-06-14 13:27:00,70.7,26.4,30.10,East,90,5.0,8.0,19,0.00,,,0.00,meteohub,2013-06-14 20:27:00,
2013-06-14 13:32:00,70.5,22.1,30.09,NE,45,12.0,12.0,16,0.00,,,0.00,meteohub,2013-06-14 20:32:00,
2013-06-14 13:37:00,70.5,25.0,30.10,SW,225,3.0,12.0,18,0.00,,,0.00,meteohub,2013-06-14 20:37:00,
2013-06-14 13:42:00,70.5,22.1,30.09,NNE,23,4.0,12.0,16,0.00,,,0.00,meteohub,2013-06-14 20:42:00,
2013-06-14 13:47:00,71.4,24.3,30.09,East,90,4.0,12.0,17,0.00,,,0.00,meteohub,2013-06-14 20:47:00,
2013-06-14 13:52:00,71.6,21.6,30.08,North,0,9.0,9.0,15,0.00,,,0.00,meteohub,2013-06-14 20:52:00,
2013-06-14 13:57:00,71.4,19.8,30.09,North,0,6.0,11.0,14,0.00,,,0.00,meteohub,2013-06-14 20:57:00,
2013-06-14 14:02:00,71.2,21.2,30.09,NNE,23,9.0,11.0,15,0.00,,,0.00,meteohub,2013-06-14 21:02:00,
2013-06-14 14:07:00,71.2,21.2,30.08,NE,45,11.0,11.0,15,0.00,,,0.00,meteohub,2013-06-14 21:07:00,
2013-06-14 14:12:00,71.2,19.6,30.08,NE,45,8.0,12.0,14,0.00,,,0.00,meteohub,2013-06-14 21:12:00,
2013-06-14 14:17:00,71.6,18.1,30.08,North,0,3.0,12.0,13,0.00,,,0.00,meteohub,2013-06-14 21:17:00,
2013-06-14 14:22:00,72.3,20.5,30.08,NE,45,4.0,12.0,14,0.00,,,0.00,meteohub,2013-06-14 21:22:00,
2013-06-14 14:27:00,72.7,19.0,30.08,NW,315,4.0,9.0,13,0.00,,,0.00,meteohub,2013-06-14 21:27:00,
2013-06-14 14:32:00,72.9,20.8,30.07,West,270,7.0,8.0,14,0.00,,,0.00,meteohub,2013-06-14 21:32:00,
2013-06-14 14:37:00,72.5,20.7,30.07,South,180,6.0,9.0,14,0.00,,,0.00,meteohub,2013-06-14 21:37:00,
2013-06-14 14:42:00,73.0,27.0,30.07,SE,135,5.0,9.0,18,0.00,,,0.00,meteohub,2013-06-14 21:42:00,
2013-06-14 14:47:00,73.6,28.8,30.06,NW,315,3.0,9.0,19,0.00,,,0.00,meteohub,2013-06-14 21:47:00,
2013-06-14 14:52:00,73.8,23.2,30.06,North,0,3.0,6.0,15,0.00,,,0.00,meteohub,2013-06-14 21:52:00,
2013-06-14 14:57:00,74.1,21.9,30.06,NE,45,8.0,8.0,14,0.00,,,0.00,meteohub,2013-06-14 21:57:00,
2013-06-14 15:02:00,73.8,21.6,30.06,West,270,2.0,8.0,14,0.00,,,0.00,meteohub,2013-06-14 22:02:00,
2013-06-14 15:07:00,74.1,21.9,30.06,North,0,6.0,9.0,14,0.00,,,0.00,meteohub,2013-06-14 22:07:00,
2013-06-14 15:12:00,74.1,20.1,30.06,NE,45,10.0,10.0,13,0.00,,,0.00,meteohub,2013-06-14 22:12:00,
2013-06-14 15:17:00,73.8,19.8,30.06,NE,45,9.0,10.0,13,0.00,,,0.00,meteohub,2013-06-14 22:17:00,
2013-06-14 15:22:00,73.4,21.4,30.05,NE,45,5.0,10.0,14,0.00,,,0.00,meteohub,2013-06-14 22:22:00,
2013-06-14 15:27:00,73.4,23.0,30.06,SW,225,2.0,10.0,15,0.00,,,0.00,meteohub,2013-06-14 22:27:00,
2013-06-14 15:32:00,72.9,20.8,30.05,SW,225,3.0,10.0,14,0.00,,,0.00,meteohub,2013-06-14 22:32:00,
2013-06-14 15:37:00,73.8,24.8,30.05,NW,315,4.0,6.0,16,0.00,,,0.00,meteohub,2013-06-14 22:37:00,
2013-06-14 15:42:00,73.8,19.8,30.05,NE,45,4.0,7.0,13,0.00,,,0.00,meteohub,2013-06-14 22:42:00,
2013-06-14 15:47:00,73.9,21.7,30.05,SW,225,3.0,7.0,14,0.00,,,0.00,meteohub,2013-06-14 22:47:00,
2013-06-14 15:52:00,74.1,25.0,30.05,NE,45,5.0,8.0,16,0.00,,,0.00,meteohub,2013-06-14 22:52:00,
2013-06-14 15:57:00,74.7,22.3,30.05,NE,45,8.0,8.0,14,0.00,,,0.00,meteohub,2013-06-14 22:57:00,
2013-06-14 16:02:00,74.5,22.1,30.05,NW,315,7.0,8.0,14,0.00,,,0.00,meteohub,2013-06-14 23:02:00,
2013-06-14 16:07:00,74.1,21.9,30.04,North,0,7.0,8.0,14,0.00,,,0.00,meteohub,2013-06-14 23:07:00,
2013-06-14 16:12:00,74.1,21.9,30.05,ESE,113,8.0,8.0,14,0.00,,,0.00,meteohub,2013-06-14 23:12:00,
2013-06-14 16:17:00,73.8,21.6,30.04,NE,45,1.0,10.0,14,0.00,,,0.00,meteohub,2013-06-14 23:17:00,
2013-06-14 16:22:00,74.1,23.5,30.04,NE,45,6.0,10.0,15,0.00,,,0.00,meteohub,2013-06-14 23:22:00,
2013-06-14 16:27:00,74.3,22.1,30.04,East,90,4.0,10.0,14,0.00,,,0.00,meteohub,2013-06-14 23:27:00,
2013-06-14 16:32:00,74.7,22.3,30.04,South,180,3.0,7.0,14,0.00,,,0.00,meteohub,2013-06-14 23:32:00,
2013-06-14 16:37:00,74.7,20.5,30.04,NW,315,4.0,7.0,13,0.00,,,0.00,meteohub,2013-06-14 23:37:00,
2013-06-14 16:42:00,75.0,22.6,30.04,NE,45,5.0,7.0,14,0.00,,,0.00,meteohub,2013-06-14 23:42:00,
2013-06-14 16:47:00,74.8,20.7,30.03,NE,45,4.0,7.0,13,0.00,,,0.00,meteohub,2013-06-14 23:47:00,
2013-06-14 16:52:00,74.5,20.5,30.03,NE,45,5.0,8.0,13,0.00,,,0.00,meteohub,2013-06-14 23:52:00,
2013-06-14 16:57:00,74.1,18.3,30.03,NW,315,4.0,8.0,12,0.00,,,0.00,meteohub,2013-06-14 23:57:00,
2013-06-14 17:02:00,74.1,20.1,30.03,East,90,6.0,10.0,13,0.00,,,0.00,meteohub,2013-06-15 00:02:00,
2013-06-14 17:07:00,73.8,18.0,30.02,NE,45,7.0,10.0,12,0.00,,,0.00,meteohub,2013-06-15 00:07:00,
2013-06-14 17:12:00,73.4,19.6,30.02,ENE,68,8.0,8.0,13,0.00,,,0.00,meteohub,2013-06-15 00:12:00,
2013-06-14 17:17:00,73.6,17.8,30.02,NNE,23,6.0,8.0,12,0.00,,,0.00,meteohub,2013-06-15 00:17:00,
2013-06-14 17:22:00,73.8,18.0,30.01,East,90,3.0,8.0,12,0.00,,,0.00,meteohub,2013-06-15 00:22:00,
2013-06-14 17:27:00,73.8,18.0,30.01,North,0,4.0,8.0,12,0.00,,,0.00,meteohub,2013-06-15 00:27:00,
2013-06-14 17:32:00,73.8,18.0,30.01,NE,45,8.0,10.0,12,0.00,,,0.00,meteohub,2013-06-15 00:32:00,
2013-06-14 17:37:00,73.4,17.8,30.01,North,0,4.0,10.0,12,0.00,,,0.00,meteohub,2013-06-15 00:37:00,
2013-06-14 17:42:00,73.6,17.8,30.01,NE,45,3.0,8.0,12,0.00,,,0.00,meteohub,2013-06-15 00:42:00,
2013-06-14 17:47:00,73.8,18.0,30.01,NE,45,4.0,8.0,12,0.00,,,0.00,meteohub,2013-06-15 00:47:00,
2013-06-14 17:52:00,73.6,17.8,30.01,SW,225,2.0,6.0,12,0.00,,,0.00,meteohub,2013-06-15 00:52:00,
2013-06-14 17:57:00,73.4,17.8,30.01,NW,315,6.0,6.0,12,0.00,,,0.00,meteohub,2013-06-15 00:57:00,
2013-06-14 18:02:00,73.0,13.3,30.00,NE,45,2.0,6.0,10,0.00,,,0.00,meteohub,2013-06-15 01:02:00,
2013-06-14 18:07:00,73.2,13.3,30.00,North,0,2.0,8.0,10,0.00,,,0.00,meteohub,2013-06-15 01:07:00,
2013-06-14 18:12:00,73.0,13.3,30.00,North,0,5.0,8.0,10,0.00,,,0.00,meteohub,2013-06-15 01:12:00,
2013-06-14 18:17:00,72.9,13.1,29.99,NE,45,4.0,8.0,10,0.00,,,0.00,meteohub,2013-06-15 01:17:00,
2013-06-14 18:22:00,73.0,13.3,29.99,NW,315,4.0,8.0,10,0.00,,,0.00,meteohub,2013-06-15 01:22:00,
2013-06-14 18:27:00,73.0,13.3,29.99,North,0,2.0,8.0,10,0.00,,,0.00,meteohub,2013-06-15 01:27:00,
2013-06-14 18:32:00,72.7,12.9,29.99,NNE,23,6.0,8.0,10,0.00,,,0.00,meteohub,2013-06-15 01:32:00,
2013-06-14 18:37:00,72.1,12.6,29.99,NE,45,4.0,6.0,10,0.00,,,0.00,meteohub,2013-06-15 01:37:00,
2013-06-14 18:42:00,71.8,12.2,29.99,NE,45,3.0,6.0,10,0.00,,,0.00,meteohub,2013-06-15 01:42:00,
2013-06-14 18:47:00,71.6,12.2,29.99,SW,225,4.0,6.0,10,0.00,,,0.00,meteohub,2013-06-15 01:47:00,
2013-06-14 18:52:00,71.4,12.0,29.99,NW,315,3.0,7.0,10,0.00,,,0.00,meteohub,2013-06-15 01:52:00,
2013-06-14 18:57:00,71.2,11.8,29.99,North,0,4.0,7.0,10,0.00,,,0.00,meteohub,2013-06-15 01:57:00,
2013-06-14 19:02:00,71.1,11.7,29.99,NE,45,7.0,7.0,10,0.00,,,0.00,meteohub,2013-06-15 02:02:00,
2013-06-14 19:07:00,70.9,11.7,29.98,North,0,5.0,7.0,10,0.00,,,0.00,meteohub,2013-06-15 02:07:00,
2013-06-14 19:12:00,70.7,11.5,29.98,North,0,4.0,7.0,10,0.00,,,0.00,meteohub,2013-06-15 02:12:00,
2013-06-14 19:17:00,70.7,11.5,29.98,North,0,3.0,7.0,10,0.00,,,0.00,meteohub,2013-06-15 02:17:00,
2013-06-14 19:22:00,70.5,11.3,29.98,North,0,4.0,6.0,10,0.00,,,0.00,meteohub,2013-06-15 02:22:00,
2013-06-14 19:27:00,70.3,11.1,29.98,North,0,2.0,5.0,10,0.00,,,0.00,meteohub,2013-06-15 02:27:00,
2013-06-14 19:32:00,70.3,11.1,29.98,NW,315,2.0,6.0,10,0.00,,,0.00,meteohub,2013-06-15 02:32:00,
2013-06-14 19:37:00,70.2,15.1,29.98,NW,315,8.0,8.0,12,0.00,,,0.00,meteohub,2013-06-15 02:37:00,
2013-06-14 19:42:00,70.2,15.1,29.98,North,0,3.0,8.0,12,0.00,,,0.00,meteohub,2013-06-15 02:42:00,
2013-06-14 19:47:00,70.0,15.1,29.98,North,0,2.0,8.0,12,0.00,,,0.00,meteohub,2013-06-15 02:47:00,
2013-06-14 19:52:00,69.8,16.7,29.98,NE,45,4.0,8.0,13,0.00,,,0.00,meteohub,2013-06-15 02:52:00,
2013-06-14 19:57:00,69.6,19.9,29.98,West,270,2.0,6.0,15,0.00,,,0.00,meteohub,2013-06-15 02:57:00,
2013-06-14 20:02:00,69.4,22.6,29.98,North,0,7.0,8.0,17,0.00,,,0.00,meteohub,2013-06-15 03:02:00,
2013-06-14 20:07:00,69.3,23.9,29.98,NW,315,4.0,8.0,18,0.00,,,0.00,meteohub,2013-06-15 03:07:00,
2013-06-14 20:12:00,69.1,25.2,29.98,North,0,2.0,8.0,19,0.00,,,0.00,meteohub,2013-06-15 03:12:00,
2013-06-14 20:17:00,68.7,26.1,29.98,NW,315,6.0,7.0,20,0.00,,,0.00,meteohub,2013-06-15 03:17:00,
2013-06-14 20:22:00,68.4,25.7,29.98,NW,315,4.0,7.0,20,0.00,,,0.00,meteohub,2013-06-15 03:22:00,
2013-06-14 20:27:00,68.2,25.5,29.98,NW,315,2.0,7.0,20,0.00,,,0.00,meteohub,2013-06-15 03:27:00,
2013-06-14 20:32:00,68.0,25.3,29.98,North,0,2.0,7.0,20,0.00,,,0.00,meteohub,2013-06-15 03:32:00,
2013-06-14 20:37:00,67.5,27.3,29.98,North,0,2.0,7.0,22,0.00,,,0.00,meteohub,2013-06-15 03:37:00,
2013-06-14 20:42:00,67.3,27.1,29.98,North,0,3.0,5.0,22,0.00,,,0.00,meteohub,2013-06-15 03:42:00,
2013-06-14 20:47:00,66.7,26.6,29.98,WNW,293,2.0,5.0,22,0.00,,,0.00,meteohub,2013-06-15 03:47:00,
2013-06-14 20:52:00,66.4,26.4,29.98,North,0,2.0,5.0,22,0.00,,,0.00,meteohub,2013-06-15 03:52:00,
2013-06-14 20:57:00,66.0,28.2,29.98,North,0,2.0,4.0,24,0.00,,,0.00,meteohub,2013-06-15 03:57:00,
2013-06-14 21:01:00,65.7,28.9,29.98,North,0,2.0,4.0,25,0.00,,,0.00,meteohub,2013-06-15 04:01:00,
2013-06-14 21:02:00,65.5,28.8,29.99,North,0,2.0,4.0,25,0.00,,,0.00,meteohub,2013-06-15 04:02:00,
2013-06-14 21:05:00,65.3,28.6,29.99,North,0,2.0,4.0,25,0.00,,,0.00,meteohub,2013-06-15 04:05:00,
2013-06-14 21:07:00,65.1,28.4,29.98,SW,225,2.0,4.0,25,0.00,,,0.00,meteohub,2013-06-15 04:07:00,
2013-06-14 21:12:00,64.8,28.0,29.98,North,0,2.0,2.0,25,0.00,,,0.00,meteohub,2013-06-15 04:12:00,
2013-06-14 21:17:00,64.4,28.8,29.99,NW,315,2.0,2.0,26,0.00,,,0.00,meteohub,2013-06-15 04:17:00,
2013-06-14 21:19:00,64.2,27.7,29.99,NW,315,1.0,2.0,25,0.00,,,0.00,meteohub,2013-06-15 04:19:00,
2013-06-14 21:25:00,63.7,28.2,29.99,NW,315,2.0,2.0,26,0.00,,,0.00,meteohub,2013-06-15 04:25:00,
2013-06-14 21:31:00,63.5,28.9,29.99,NW,315,1.0,3.0,27,0.00,,,0.00,meteohub,2013-06-15 04:31:00,
2013-06-14 21:37:00,63.1,29.5,29.99,SW,225,1.0,3.0,28,0.00,,,0.00,meteohub,2013-06-15 04:37:00,
2013-06-14 21:42:00,62.6,29.1,29.99,NW,315,0.0,3.0,28,0.00,,,0.00,meteohub,2013-06-15 04:42:00,
2013-06-14 21:47:00,62.1,30.2,29.99,SE,135,1.0,2.0,30,0.00,,,0.00,meteohub,2013-06-15 04:47:00,
2013-06-14 21:52:00,61.3,30.4,29.99,SW,225,1.0,2.0,31,0.00,,,0.00,meteohub,2013-06-15 04:52:00,
2013-06-14 21:57:00,60.8,30.7,29.99,SE,135,2.0,2.0,32,0.00,,,0.00,meteohub,2013-06-15 04:57:00,
2013-06-14 22:02:00,60.3,31.1,29.99,SW,225,1.0,2.0,33,0.00,,,0.00,meteohub,2013-06-15 05:02:00,
2013-06-14 22:07:00,60.1,31.6,29.99,SW,225,1.0,2.0,34,0.00,,,0.00,meteohub,2013-06-15 05:07:00,
2013-06-14 22:12:00,59.7,32.0,29.99,SW,225,1.0,2.0,35,0.00,,,0.00,meteohub,2013-06-15 05:12:00,
2013-06-14 22:17:00,59.2,31.5,29.99,SW,225,1.0,2.0,35,0.00,,,0.00,meteohub,2013-06-15 05:17:00,
2013-06-14 22:22:00,59.0,32.0,29.99,SW,225,0.0,2.0,36,0.00,,,0.00,meteohub,2013-06-15 05:22:00,
2013-06-14 22:27:00,58.8,32.5,29.99,SW,225,3.0,3.0,37,0.00,,,0.00,meteohub,2013-06-15 05:27:00,
2013-06-14 22:32:00,58.5,32.9,29.99,North,0,1.0,3.0,38,0.00,,,0.00,meteohub,2013-06-15 05:32:00,
2013-06-14 22:37:00,58.1,32.5,29.99,South,180,1.0,3.0,38,0.00,,,0.00,meteohub,2013-06-15 05:37:00,
2013-06-14 22:42:00,57.9,32.5,29.99,SW,225,2.0,3.0,38,0.00,,,0.00,meteohub,2013-06-15 05:42:00,
2013-06-14 22:47:00,57.7,32.4,29.99,North,0,1.0,2.0,38,0.00,,,0.00,meteohub,2013-06-15 05:47:00,
2013-06-14 22:52:00,57.4,32.0,29.99,SE,135,0.0,2.0,38,0.00,,,0.00,meteohub,2013-06-15 05:52:00,
2013-06-14 22:57:00,56.8,32.7,29.99,NW,315,2.0,2.0,40,0.00,,,0.00,meteohub,2013-06-15 05:57:00,
2013-06-14 23:02:00,56.7,33.8,29.99,West,270,1.0,2.0,42,0.00,,,0.00,meteohub,2013-06-15 06:02:00,
2013-06-14 23:07:00,56.5,34.3,29.99,SW,225,1.0,2.0,43,0.00,,,0.00,meteohub,2013-06-15 06:07:00,
2013-06-14 23:12:00,56.1,34.5,29.99,SW,225,2.0,2.0,44,0.00,,,0.00,meteohub,2013-06-15 06:12:00,
2013-06-14 23:17:00,55.8,35.2,29.99,South,180,1.0,2.0,46,0.00,,,0.00,meteohub,2013-06-15 06:17:00,
2013-06-14 23:22:00,55.4,34.9,30.00,South,180,1.0,2.0,46,0.00,,,0.00,meteohub,2013-06-15 06:22:00,
2013-06-14 23:27:00,55.2,36.0,29.99,NW,315,1.0,2.0,48,0.00,,,0.00,meteohub,2013-06-15 06:27:00,
2013-06-14 23:32:00,54.9,36.1,29.99,West,270,2.0,2.0,49,0.00,,,0.00,meteohub,2013-06-15 06:32:00,
2013-06-14 23:37:00,54.7,36.9,29.99,NNW,338,2.0,2.0,51,0.00,,,0.00,meteohub,2013-06-15 06:37:00,
2013-06-14 23:42:00,54.7,37.9,29.99,West,270,2.0,2.0,53,0.00,,,0.00,meteohub,2013-06-15 06:42:00,
2013-06-14 23:47:00,54.7,38.8,29.99,South,180,2.0,3.0,55,0.00,,,0.00,meteohub,2013-06-15 06:47:00,
2013-06-14 23:52:00,54.5,38.7,29.99,NE,45,2.0,3.0,55,0.00,,,0.00,meteohub,2013-06-15 06:52:00,
2013-06-14 23:57:00,54.3,39.0,29.99,NW,315,2.0,2.0,56,0.00,,,0.00,meteohub,2013-06-15 06:57:00,